This is the latest recevied weather packets stored in our database for station/object KN4CCE-13. If no packets are shown the sender has not sent any weather packets the latest 10 day(s).
| Time | Temp. | Humidity | Pressure | Rain* | Wind** | Luminosity | Snow |
|---|---|---|---|---|---|---|---|
| 1778063414 | 16.67° C | 80% | 1013.8 hPa | 0 mm | - | 0 W/m² | - |
| 1778062522 | 16.67° C | 80% | 1013.9 hPa | 0 mm | - | 0 W/m² | - |
| 1778061608 | 16.67° C | 80% | 1014 hPa | 0 mm | - | 0 W/m² | - |
| 1778060708 | 16.67° C | 81% | 1014.1 hPa | 0 mm | - | 0 W/m² | - |
| 1778059814 | 16.67° C | 80% | 1014.3 hPa | 0 mm | - | 0 W/m² | - |
| 1778055306 | 16.67° C | 81% | 1014.4 hPa | 0 mm | - | 0 W/m² | - |
| 1778050819 | 16.67° C | 80% | 1014.5 hPa | 0 mm | - | 0 W/m² | - |
| 1778047211 | 17.22° C | 79% | 1015.1 hPa | 0 mm | - | 0 W/m² | - |
| 1778042724 | 18.33° C | 76% | 1015.5 hPa | 0 mm | - | 0 W/m² | - |
| 1778041818 | 18.33° C | 75% | 1015.5 hPa | 0 mm | - | 0 W/m² | - |
| 1778038211 | 18.89° C | 71% | 1015.5 hPa | 0 mm | - | 0 W/m² | - |
| 1778024733 | 24.44° C | 48% | 1013.9 hPa | 0 mm | - | 7 W/m² | - |
| 1778014826 | 26.67° C | 41% | 1014.1 hPa | 0 mm | - | 67 W/m² | - |
| 1778013930 | 26.67° C | 41% | 1014.3 hPa | 0 mm | - | 91 W/m² | - |
| 1778010331 | 26.67° C | 41% | 1014.7 hPa | 0 mm | - | 687 W/m² | - |
| 1777999522 | 25.56° C | 43% | 1016.7 hPa | 0 mm | - | 1062 W/m² | - |
| 1777997710 | 25° C | 48% | 1016.8 hPa | 0 mm | - | 912 W/m² | - |
| 1777994112 | 23.33° C | 59% | 1017.3 hPa | 0 mm | - | 888 W/m² | - |
| 1777980631 | 13.89° C | 80% | 1017.2 hPa | 0 mm | - | 54 W/m² | - |
| 1777976109 | 13.33° C | 78% | 1016.2 hPa | 0 mm | - | 0 W/m² | - |
| 1777971613 | 13.89° C | 76% | 1015.8 hPa | 0 mm | - | 0 W/m² | - |
| 1777970717 | 13.89° C | 76% | 1015.7 hPa | 0 mm | - | 0 W/m² | - |
| 1777969813 | 14.44° C | 74% | 1015.6 hPa | 0 mm | - | 0 W/m² | - |
| 1777967115 | 15° C | 72% | 1015.5 hPa | 0 mm | - | 0 W/m² | - |
| 1777965307 | 15.56° C | 71% | 1015.3 hPa | 0 mm | - | 0 W/m² | - |
* Rain latest hour (hover to see other rain measurements)
** Current wind speed in m/s (hover to see current wind gust speed)